sensor_id;sensor_type;location;lat;lon;timestamp;P1;durP1;ratioP1;P2;durP2;ratioP2
12407;SDS011;6268;48.188;17.134;2024-03-02T00:01:53;32.88;;;29.23;;
12407;SDS011;6268;48.188;17.134;2024-03-02T00:04:22;33.90;;;30.15;;
12407;SDS011;6268;48.188;17.134;2024-03-02T00:06:51;32.28;;;28.75;;
12407;SDS011;6268;48.188;17.134;2024-03-02T00:09:21;31.85;;;28.45;;
12407;SDS011;6268;48.188;17.134;2024-03-02T00:11:50;31.20;;;27.20;;
12407;SDS011;6268;48.188;17.134;2024-03-02T00:14:19;34.60;;;28.90;;
12407;SDS011;6268;48.188;17.134;2024-03-02T00:16:47;32.15;;;28.10;;
12407;SDS011;6268;48.188;17.134;2024-03-02T00:19:17;31.15;;;27.83;;
12407;SDS011;6268;48.188;17.134;2024-03-02T00:21:45;30.08;;;26.95;;
12407;SDS011;6268;48.188;17.134;2024-03-02T00:24:17;30.77;;;27.63;;
12407;SDS011;6268;48.188;17.134;2024-03-02T00:26:49;32.13;;;28.17;;
12407;SDS011;6268;48.188;17.134;2024-03-02T00:29:17;31.90;;;28.48;;
12407;SDS011;6268;48.188;17.134;2024-03-02T00:31:47;31.48;;;28.23;;
12407;SDS011;6268;48.188;17.134;2024-03-02T00:34:17;30.08;;;26.85;;
12407;SDS011;6268;48.188;17.134;2024-03-02T00:36:46;32.10;;;27.15;;
12407;SDS011;6268;48.188;17.134;2024-03-02T00:39:15;35.65;;;27.52;;
12407;SDS011;6268;48.188;17.134;2024-03-02T00:41:45;31.48;;;28.13;;
12407;SDS011;6268;48.188;17.134;2024-03-02T00:44:14;32.40;;;28.90;;
12407;SDS011;6268;48.188;17.134;2024-03-02T00:46:43;32.03;;;28.50;;
12407;SDS011;6268;48.188;17.134;2024-03-02T00:49:12;30.02;;;26.90;;
12407;SDS011;6268;48.188;17.134;2024-03-02T00:51:49;31.67;;;28.27;;
12407;SDS011;6268;48.188;17.134;2024-03-02T00:54:19;31.42;;;28.10;;
12407;SDS011;6268;48.188;17.134;2024-03-02T00:56:50;30.83;;;27.63;;
12407;SDS011;6268;48.188;17.134;2024-03-02T00:59:19;30.75;;;27.52;;
12407;SDS011;6268;48.188;17.134;2024-03-02T01:01:47;31.40;;;28.10;;
12407;SDS011;6268;48.188;17.134;2024-03-02T01:04:16;30.98;;;27.73;;
12407;SDS011;6268;48.188;17.134;2024-03-02T01:06:45;31.05;;;27.58;;
12407;SDS011;6268;48.188;17.134;2024-03-02T01:09:14;34.85;;;28.65;;
12407;SDS011;6268;48.188;17.134;2024-03-02T01:11:44;37.05;;;33.05;;
12407;SDS011;6268;48.188;17.134;2024-03-02T01:14:13;36.70;;;30.00;;
12407;SDS011;6268;48.188;17.134;2024-03-02T01:16:41;39.08;;;32.90;;
12407;SDS011;6268;48.188;17.134;2024-03-02T01:19:10;39.15;;;31.83;;
12407;SDS011;6268;48.188;17.134;2024-03-02T01:21:38;44.40;;;34.97;;
12407;SDS011;6268;48.188;17.134;2024-03-02T01:24:08;36.58;;;32.22;;
12407;SDS011;6268;48.188;17.134;2024-03-02T01:26:36;36.08;;;32.20;;
12407;SDS011;6268;48.188;17.134;2024-03-02T01:29:05;34.53;;;30.02;;
12407;SDS011;6268;48.188;17.134;2024-03-02T01:31:33;35.50;;;31.70;;
12407;SDS011;6268;48.188;17.134;2024-03-02T01:34:01;36.15;;;32.10;;
12407;SDS011;6268;48.188;17.134;2024-03-02T01:36:30;38.13;;;33.25;;
12407;SDS011;6268;48.188;17.134;2024-03-02T01:38:58;35.30;;;31.60;;
12407;SDS011;6268;48.188;17.134;2024-03-02T01:41:28;35.80;;;31.90;;
12407;SDS011;6268;48.188;17.134;2024-03-02T01:43:57;36.72;;;32.75;;
12407;SDS011;6268;48.188;17.134;2024-03-02T01:46:25;34.38;;;30.75;;
12407;SDS011;6268;48.188;17.134;2024-03-02T01:48:53;36.35;;;30.70;;
12407;SDS011;6268;48.188;17.134;2024-03-02T01:51:22;38.42;;;31.23;;
12407;SDS011;6268;48.188;17.134;2024-03-02T01:53:50;32.13;;;28.70;;
12407;SDS011;6268;48.188;17.134;2024-03-02T01:56:19;35.30;;;30.10;;
12407;SDS011;6268;48.188;17.134;2024-03-02T01:58:48;33.65;;;28.42;;
12407;SDS011;6268;48.188;17.134;2024-03-02T02:01:17;32.47;;;29.10;;
12407;SDS011;6268;48.188;17.134;2024-03-02T02:03:45;31.35;;;28.05;;
12407;SDS011;6268;48.188;17.134;2024-03-02T02:06:14;34.30;;;29.83;;
12407;SDS011;6268;48.188;17.134;2024-03-02T02:08:42;33.05;;;29.42;;
12407;SDS011;6268;48.188;17.134;2024-03-02T02:11:11;34.28;;;30.38;;
12407;SDS011;6268;48.188;17.134;2024-03-02T02:13:42;31.65;;;28.27;;
12407;SDS011;6268;48.188;17.134;2024-03-02T02:16:12;33.85;;;27.25;;
12407;SDS011;6268;48.188;17.134;2024-03-02T02:18:41;30.90;;;27.38;;
12407;SDS011;6268;48.188;17.134;2024-03-02T02:21:09;32.17;;;28.42;;
12407;SDS011;6268;48.188;17.134;2024-03-02T02:23:39;30.55;;;27.23;;
12407;SDS011;6268;48.188;17.134;2024-03-02T02:26:12;31.95;;;28.55;;
12407;SDS011;6268;48.188;17.134;2024-03-02T02:28:41;36.03;;;28.23;;
12407;SDS011;6268;48.188;17.134;2024-03-02T02:31:13;32.95;;;29.10;;
12407;SDS011;6268;48.188;17.134;2024-03-02T02:33:41;35.90;;;31.20;;
12407;SDS011;6268;48.188;17.134;2024-03-02T02:36:10;35.40;;;31.48;;
12407;SDS011;6268;48.188;17.134;2024-03-02T02:38:40;36.35;;;32.42;;
12407;SDS011;6268;48.188;17.134;2024-03-02T02:41:11;37.28;;;33.25;;
12407;SDS011;6268;48.188;17.134;2024-03-02T02:43:39;37.95;;;32.63;;
12407;SDS011;6268;48.188;17.134;2024-03-02T02:46:08;37.95;;;32.95;;
12407;SDS011;6268;48.188;17.134;2024-03-02T02:48:36;35.15;;;31.30;;
12407;SDS011;6268;48.188;17.134;2024-03-02T02:51:05;37.70;;;31.55;;
12407;SDS011;6268;48.188;17.134;2024-03-02T02:53:33;40.65;;;32.97;;
12407;SDS011;6268;48.188;17.134;2024-03-02T02:56:03;35.97;;;32.08;;
12407;SDS011;6268;48.188;17.134;2024-03-02T02:58:32;38.25;;;32.30;;
12407;SDS011;6268;48.188;17.134;2024-03-02T03:01:00;44.03;;;36.63;;
12407;SDS011;6268;48.188;17.134;2024-03-02T03:03:30;40.50;;;34.83;;
12407;SDS011;6268;48.188;17.134;2024-03-02T03:05:59;40.33;;;34.20;;
12407;SDS011;6268;48.188;17.134;2024-03-02T03:08:27;38.78;;;34.58;;
12407;SDS011;6268;48.188;17.134;2024-03-02T03:10:55;38.58;;;33.53;;
12407;SDS011;6268;48.188;17.134;2024-03-02T03:13:25;36.50;;;31.75;;
12407;SDS011;6268;48.188;17.134;2024-03-02T03:15:54;39.60;;;32.97;;
12407;SDS011;6268;48.188;17.134;2024-03-02T03:18:22;39.47;;;33.78;;
12407;SDS011;6268;48.188;17.134;2024-03-02T03:20:50;36.08;;;31.20;;
12407;SDS011;6268;48.188;17.134;2024-03-02T03:23:19;37.00;;;30.75;;
12407;SDS011;6268;48.188;17.134;2024-03-02T03:25:47;34.45;;;30.50;;
12407;SDS011;6268;48.188;17.134;2024-03-02T03:28:15;60.72;;;54.47;;
12407;SDS011;6268;48.188;17.134;2024-03-02T03:30:45;56.53;;;50.75;;
12407;SDS011;6268;48.188;17.134;2024-03-02T03:33:14;36.17;;;30.25;;
12407;SDS011;6268;48.188;17.134;2024-03-02T03:35:42;35.08;;;29.38;;
12407;SDS011;6268;48.188;17.134;2024-03-02T03:38:11;32.85;;;28.55;;
12407;SDS011;6268;48.188;17.134;2024-03-02T03:40:39;35.72;;;32.17;;
12407;SDS011;6268;48.188;17.134;2024-03-02T03:43:07;36.72;;;32.28;;
12407;SDS011;6268;48.188;17.134;2024-03-02T03:45:36;34.60;;;30.35;;
12407;SDS011;6268;48.188;17.134;2024-03-02T03:48:06;33.90;;;29.55;;
12407;SDS011;6268;48.188;17.134;2024-03-02T03:50:35;30.63;;;27.33;;
12407;SDS011;6268;48.188;17.134;2024-03-02T03:53:04;34.08;;;29.50;;
12407;SDS011;6268;48.188;17.134;2024-03-02T03:55:33;34.90;;;29.13;;
12407;SDS011;6268;48.188;17.134;2024-03-02T03:58:01;31.70;;;28.38;;
12407;SDS011;6268;48.188;17.134;2024-03-02T04:00:30;30.95;;;27.40;;
12407;SDS011;6268;48.188;17.134;2024-03-02T04:02:58;30.80;;;27.60;;
12407;SDS011;6268;48.188;17.134;2024-03-02T04:05:28;31.30;;;27.77;;
12407;SDS011;6268;48.188;17.134;2024-03-02T04:07:56;33.17;;;28.08;;
12407;SDS011;6268;48.188;17.134;2024-03-02T04:10:25;30.50;;;27.10;;
12407;SDS011;6268;48.188;17.134;2024-03-02T04:12:53;29.60;;;26.48;;
12407;SDS011;6268;48.188;17.134;2024-03-02T04:15:22;32.17;;;28.92;;
12407;SDS011;6268;48.188;17.134;2024-03-02T04:17:50;30.77;;;27.55;;
12407;SDS011;6268;48.188;17.134;2024-03-02T04:20:18;32.63;;;28.08;;
12407;SDS011;6268;48.188;17.134;2024-03-02T04:22:48;31.55;;;28.30;;
12407;SDS011;6268;48.188;17.134;2024-03-02T04:25:17;30.73;;;27.30;;
12407;SDS011;6268;48.188;17.134;2024-03-02T04:27:46;31.92;;;28.33;;
12407;SDS011;6268;48.188;17.134;2024-03-02T04:30:14;34.03;;;29.13;;
12407;SDS011;6268;48.188;17.134;2024-03-02T04:32:43;30.48;;;27.38;;
12407;SDS011;6268;48.188;17.134;2024-03-02T04:35:13;34.45;;;28.50;;
12407;SDS011;6268;48.188;17.134;2024-03-02T04:37:42;31.55;;;28.30;;
12407;SDS011;6268;48.188;17.134;2024-03-02T04:40:12;32.83;;;28.63;;
12407;SDS011;6268;48.188;17.134;2024-03-02T04:42:41;32.63;;;28.98;;
12407;SDS011;6268;48.188;17.134;2024-03-02T04:45:09;31.45;;;28.25;;
12407;SDS011;6268;48.188;17.134;2024-03-02T04:47:38;34.15;;;29.35;;
12407;SDS011;6268;48.188;17.134;2024-03-02T04:50:06;31.88;;;28.50;;
12407;SDS011;6268;48.188;17.134;2024-03-02T04:52:35;31.45;;;28.05;;
12407;SDS011;6268;48.188;17.134;2024-03-02T04:55:04;31.02;;;27.75;;
12407;SDS011;6268;48.188;17.134;2024-03-02T04:57:57;30.90;;;27.45;;
12407;SDS011;6268;48.188;17.134;2024-03-02T05:00:26;32.50;;;26.55;;
12407;SDS011;6268;48.188;17.134;2024-03-02T05:02:54;32.28;;;28.60;;
12407;SDS011;6268;48.188;17.134;2024-03-02T05:05:22;32.72;;;27.52;;
12407;SDS011;6268;48.188;17.134;2024-03-02T05:07:51;30.83;;;27.55;;
12407;SDS011;6268;48.188;17.134;2024-03-02T05:10:19;30.25;;;27.05;;
12407;SDS011;6268;48.188;17.134;2024-03-02T05:12:48;34.10;;;28.63;;
12407;SDS011;6268;48.188;17.134;2024-03-02T05:15:25;31.75;;;28.00;;
12407;SDS011;6268;48.188;17.134;2024-03-02T05:17:54;30.90;;;27.58;;
12407;SDS011;6268;48.188;17.134;2024-03-02T05:20:23;30.60;;;27.35;;
12407;SDS011;6268;48.188;17.134;2024-03-02T05:22:52;32.38;;;28.33;;
12407;SDS011;6268;48.188;17.134;2024-03-02T05:25:20;30.67;;;27.38;;
12407;SDS011;6268;48.188;17.134;2024-03-02T05:27:49;32.58;;;28.13;;
12407;SDS011;6268;48.188;17.134;2024-03-02T05:30:18;29.98;;;26.85;;
12407;SDS011;6268;48.188;17.134;2024-03-02T05:32:48;33.05;;;28.25;;
12407;SDS011;6268;48.188;17.134;2024-03-02T05:35:16;33.15;;;28.58;;
12407;SDS011;6268;48.188;17.134;2024-03-02T05:37:44;33.20;;;28.13;;
12407;SDS011;6268;48.188;17.134;2024-03-02T05:40:13;31.83;;;27.75;;
12407;SDS011;6268;48.188;17.134;2024-03-02T05:42:43;32.53;;;26.90;;
12407;SDS011;6268;48.188;17.134;2024-03-02T05:45:12;31.90;;;27.75;;
12407;SDS011;6268;48.188;17.134;2024-03-02T05:47:43;30.42;;;26.95;;
12407;SDS011;6268;48.188;17.134;2024-03-02T05:50:12;33.88;;;27.73;;
12407;SDS011;6268;48.188;17.134;2024-03-02T05:52:41;32.40;;;27.73;;
12407;SDS011;6268;48.188;17.134;2024-03-02T05:55:09;34.28;;;26.65;;
12407;SDS011;6268;48.188;17.134;2024-03-02T05:57:38;31.10;;;27.80;;
12407;SDS011;6268;48.188;17.134;2024-03-02T06:00:29;31.40;;;28.17;;
12407;SDS011;6268;48.188;17.134;2024-03-02T06:02:58;33.85;;;27.98;;
12407;SDS011;6268;48.188;17.134;2024-03-02T06:05:28;31.52;;;28.10;;
12407;SDS011;6268;48.188;17.134;2024-03-02T06:07:56;33.58;;;29.85;;
12407;SDS011;6268;48.188;17.134;2024-03-02T06:10:25;30.38;;;27.23;;
12407;SDS011;6268;48.188;17.134;2024-03-02T06:12:53;33.50;;;28.80;;
12407;SDS011;6268;48.188;17.134;2024-03-02T06:15:22;31.40;;;28.10;;
12407;SDS011;6268;48.188;17.134;2024-03-02T06:17:50;30.33;;;27.30;;
12407;SDS011;6268;48.188;17.134;2024-03-02T06:20:19;30.73;;;27.42;;
12407;SDS011;6268;48.188;17.134;2024-03-02T06:22:49;30.13;;;26.92;;
12407;SDS011;6268;48.188;17.134;2024-03-02T06:25:17;31.05;;;27.80;;
12407;SDS011;6268;48.188;17.134;2024-03-02T06:27:46;31.38;;;28.02;;
12407;SDS011;6268;48.188;17.134;2024-03-02T06:30:14;32.53;;;27.63;;
12407;SDS011;6268;48.188;17.134;2024-03-02T06:32:43;31.15;;;27.85;;
12407;SDS011;6268;48.188;17.134;2024-03-02T06:35:12;32.50;;;28.73;;
12407;SDS011;6268;48.188;17.134;2024-03-02T06:37:40;33.28;;;28.20;;
12407;SDS011;6268;48.188;17.134;2024-03-02T06:40:10;39.58;;;35.55;;
12407;SDS011;6268;48.188;17.134;2024-03-02T06:42:39;34.88;;;30.08;;
12407;SDS011;6268;48.188;17.134;2024-03-02T06:45:07;34.50;;;30.80;;
12407;SDS011;6268;48.188;17.134;2024-03-02T06:47:35;33.88;;;30.25;;
12407;SDS011;6268;48.188;17.134;2024-03-02T06:50:04;34.05;;;30.35;;
12407;SDS011;6268;48.188;17.134;2024-03-02T06:52:33;35.10;;;31.30;;
12407;SDS011;6268;48.188;17.134;2024-03-02T06:55:02;33.15;;;28.98;;
12407;SDS011;6268;48.188;17.134;2024-03-02T06:57:33;33.63;;;29.50;;
12407;SDS011;6268;48.188;17.134;2024-03-02T07:00:01;33.00;;;28.10;;
12407;SDS011;6268;48.188;17.134;2024-03-02T07:02:31;31.58;;;28.13;;
12407;SDS011;6268;48.188;17.134;2024-03-02T07:05:00;31.67;;;27.73;;
12407;SDS011;6268;48.188;17.134;2024-03-02T07:07:28;31.63;;;28.05;;
12407;SDS011;6268;48.188;17.134;2024-03-02T07:09:57;31.05;;;27.85;;
12407;SDS011;6268;48.188;17.134;2024-03-02T07:12:25;32.13;;;28.60;;
12407;SDS011;6268;48.188;17.134;2024-03-02T07:14:55;39.42;;;30.15;;
12407;SDS011;6268;48.188;17.134;2024-03-02T07:17:51;33.95;;;29.85;;
12407;SDS011;6268;48.188;17.134;2024-03-02T07:20:20;37.72;;;30.98;;
12407;SDS011;6268;48.188;17.134;2024-03-02T07:22:48;36.70;;;31.02;;
12407;SDS011;6268;48.188;17.134;2024-03-02T07:25:16;34.33;;;30.05;;
12407;SDS011;6268;48.188;17.134;2024-03-02T07:27:48;34.10;;;30.23;;
12407;SDS011;6268;48.188;17.134;2024-03-02T07:30:17;36.42;;;30.15;;
12407;SDS011;6268;48.188;17.134;2024-03-02T07:32:46;32.42;;;28.85;;
12407;SDS011;6268;48.188;17.134;2024-03-02T07:35:17;36.33;;;30.48;;
12407;SDS011;6268;48.188;17.134;2024-03-02T07:37:45;32.60;;;29.10;;
12407;SDS011;6268;48.188;17.134;2024-03-02T07:40:14;32.20;;;28.80;;
12407;SDS011;6268;48.188;17.134;2024-03-02T07:42:42;35.75;;;29.88;;
12407;SDS011;6268;48.188;17.134;2024-03-02T07:45:11;39.03;;;31.17;;
12407;SDS011;6268;48.188;17.134;2024-03-02T07:47:41;38.90;;;31.88;;
12407;SDS011;6268;48.188;17.134;2024-03-02T07:50:09;35.40;;;31.33;;
12407;SDS011;6268;48.188;17.134;2024-03-02T07:52:37;38.45;;;33.63;;
12407;SDS011;6268;48.188;17.134;2024-03-02T07:55:06;43.47;;;35.35;;
12407;SDS011;6268;48.188;17.134;2024-03-02T07:57:35;40.50;;;36.15;;
12407;SDS011;6268;48.188;17.134;2024-03-02T08:00:03;38.17;;;33.55;;
12407;SDS011;6268;48.188;17.134;2024-03-02T08:02:33;40.65;;;35.92;;
12407;SDS011;6268;48.188;17.134;2024-03-02T08:05:03;45.58;;;39.63;;
12407;SDS011;6268;48.188;17.134;2024-03-02T08:07:32;46.45;;;39.08;;
12407;SDS011;6268;48.188;17.134;2024-03-02T08:10:00;44.90;;;38.83;;
12407;SDS011;6268;48.188;17.134;2024-03-02T08:12:29;43.08;;;36.78;;
12407;SDS011;6268;48.188;17.134;2024-03-02T08:14:57;39.63;;;35.33;;
12407;SDS011;6268;48.188;17.134;2024-03-02T08:17:25;42.17;;;36.85;;
12407;SDS011;6268;48.188;17.134;2024-03-02T08:19:54;43.42;;;37.50;;
12407;SDS011;6268;48.188;17.134;2024-03-02T08:22:24;39.90;;;35.70;;
12407;SDS011;6268;48.188;17.134;2024-03-02T08:24:52;43.08;;;37.35;;
12407;SDS011;6268;48.188;17.134;2024-03-02T08:27:22;38.58;;;34.45;;
12407;SDS011;6268;48.188;17.134;2024-03-02T08:29:50;39.83;;;35.58;;
12407;SDS011;6268;48.188;17.134;2024-03-02T08:32:18;45.50;;;39.17;;
12407;SDS011;6268;48.188;17.134;2024-03-02T08:34:47;48.75;;;39.15;;
12407;SDS011;6268;48.188;17.134;2024-03-02T08:37:15;45.65;;;40.65;;
12407;SDS011;6268;48.188;17.134;2024-03-02T08:39:46;48.03;;;41.30;;
12407;SDS011;6268;48.188;17.134;2024-03-02T08:42:14;55.67;;;47.28;;
12407;SDS011;6268;48.188;17.134;2024-03-02T08:44:44;39.75;;;35.45;;
12407;SDS011;6268;48.188;17.134;2024-03-02T08:47:12;42.45;;;37.03;;
12407;SDS011;6268;48.188;17.134;2024-03-02T08:49:41;47.85;;;41.05;;
12407;SDS011;6268;48.188;17.134;2024-03-02T08:52:09;44.30;;;37.63;;
12407;SDS011;6268;48.188;17.134;2024-03-02T08:54:37;40.10;;;35.72;;
12407;SDS011;6268;48.188;17.134;2024-03-02T08:57:07;39.92;;;34.92;;
12407;SDS011;6268;48.188;17.134;2024-03-02T08:59:35;40.17;;;33.55;;
12407;SDS011;6268;48.188;17.134;2024-03-02T09:02:04;39.05;;;33.65;;
12407;SDS011;6268;48.188;17.134;2024-03-02T09:04:32;44.13;;;36.13;;
12407;SDS011;6268;48.188;17.134;2024-03-02T09:07:01;47.75;;;39.88;;
12407;SDS011;6268;48.188;17.134;2024-03-02T09:09:29;49.10;;;39.58;;
12407;SDS011;6268;48.188;17.134;2024-03-02T09:11:59;49.35;;;38.67;;
12407;SDS011;6268;48.188;17.134;2024-03-02T09:14:29;37.83;;;33.42;;
12407;SDS011;6268;48.188;17.134;2024-03-02T09:16:57;37.55;;;33.13;;
12407;SDS011;6268;48.188;17.134;2024-03-02T09:19:26;39.53;;;33.38;;
12407;SDS011;6268;48.188;17.134;2024-03-02T09:21:54;38.45;;;34.30;;
12407;SDS011;6268;48.188;17.134;2024-03-02T09:24:25;35.13;;;31.42;;
12407;SDS011;6268;48.188;17.134;2024-03-02T09:26:53;34.13;;;28.67;;
12407;SDS011;6268;48.188;17.134;2024-03-02T09:29:22;35.03;;;31.33;;
12407;SDS011;6268;48.188;17.134;2024-03-02T09:31:52;35.35;;;31.52;;
12407;SDS011;6268;48.188;17.134;2024-03-02T09:34:20;35.35;;;31.55;;
12407;SDS011;6268;48.188;17.134;2024-03-02T09:36:50;34.42;;;30.52;;
12407;SDS011;6268;48.188;17.134;2024-03-02T09:39:19;34.92;;;29.60;;
12407;SDS011;6268;48.188;17.134;2024-03-02T09:41:48;37.20;;;31.73;;
12407;SDS011;6268;48.188;17.134;2024-03-02T09:44:16;37.55;;;32.75;;
12407;SDS011;6268;48.188;17.134;2024-03-02T09:46:48;41.33;;;33.53;;
12407;SDS011;6268;48.188;17.134;2024-03-02T09:49:18;40.47;;;34.17;;
12407;SDS011;6268;48.188;17.134;2024-03-02T09:51:47;36.28;;;32.47;;
12407;SDS011;6268;48.188;17.134;2024-03-02T09:54:16;37.50;;;33.50;;
12407;SDS011;6268;48.188;17.134;2024-03-02T09:56:49;40.47;;;34.85;;
12407;SDS011;6268;48.188;17.134;2024-03-02T09:59:18;41.33;;;33.17;;
12407;SDS011;6268;48.188;17.134;2024-03-02T10:01:57;41.00;;;34.08;;
12407;SDS011;6268;48.188;17.134;2024-03-02T10:04:28;38.88;;;34.67;;
12407;SDS011;6268;48.188;17.134;2024-03-02T10:07:11;42.78;;;37.55;;
12407;SDS011;6268;48.188;17.134;2024-03-02T10:09:42;41.92;;;37.42;;
12407;SDS011;6268;48.188;17.134;2024-03-02T10:12:13;39.63;;;35.35;;
12407;SDS011;6268;48.188;17.134;2024-03-02T10:14:42;43.35;;;36.58;;
12407;SDS011;6268;48.188;17.134;2024-03-02T10:17:11;39.42;;;35.13;;
12407;SDS011;6268;48.188;17.134;2024-03-02T10:19:43;37.58;;;33.55;;
12407;SDS011;6268;48.188;17.134;2024-03-02T10:22:11;39.63;;;33.85;;
12407;SDS011;6268;48.188;17.134;2024-03-02T10:24:41;36.42;;;32.10;;
12407;SDS011;6268;48.188;17.134;2024-03-02T10:27:15;38.55;;;32.50;;
12407;SDS011;6268;48.188;17.134;2024-03-02T10:29:45;33.33;;;29.83;;
12407;SDS011;6268;48.188;17.134;2024-03-02T10:32:14;35.15;;;31.45;;
12407;SDS011;6268;48.188;17.134;2024-03-02T10:34:45;38.33;;;31.85;;
12407;SDS011;6268;48.188;17.134;2024-03-02T10:37:15;39.00;;;34.25;;
12407;SDS011;6268;48.188;17.134;2024-03-02T10:39:45;46.40;;;36.50;;
12407;SDS011;6268;48.188;17.134;2024-03-02T10:42:15;46.63;;;35.67;;
12407;SDS011;6268;48.188;17.134;2024-03-02T10:44:46;39.92;;;35.47;;
12407;SDS011;6268;48.188;17.134;2024-03-02T10:47:16;40.72;;;35.25;;
12407;SDS011;6268;48.188;17.134;2024-03-02T10:49:48;44.85;;;38.22;;
12407;SDS011;6268;48.188;17.134;2024-03-02T10:52:18;46.42;;;39.20;;
12407;SDS011;6268;48.188;17.134;2024-03-02T10:54:49;44.72;;;39.85;;
12407;SDS011;6268;48.188;17.134;2024-03-02T10:57:19;41.15;;;35.83;;
12407;SDS011;6268;48.188;17.134;2024-03-02T10:59:51;39.05;;;34.13;;
12407;SDS011;6268;48.188;17.134;2024-03-02T11:02:23;38.90;;;34.03;;
12407;SDS011;6268;48.188;17.134;2024-03-02T11:04:56;41.90;;;35.63;;
12407;SDS011;6268;48.188;17.134;2024-03-02T11:07:27;42.35;;;35.67;;
12407;SDS011;6268;48.188;17.134;2024-03-02T11:09:57;41.20;;;33.25;;
12407;SDS011;6268;48.188;17.134;2024-03-02T11:12:36;37.17;;;33.13;;
12407;SDS011;6268;48.188;17.134;2024-03-02T11:15:08;40.08;;;35.47;;
12407;SDS011;6268;48.188;17.134;2024-03-02T11:17:38;39.63;;;35.33;;
12407;SDS011;6268;48.188;17.134;2024-03-02T11:20:09;41.15;;;36.33;;
12407;SDS011;6268;48.188;17.134;2024-03-02T11:22:38;44.78;;;37.92;;
12407;SDS011;6268;48.188;17.134;2024-03-02T11:25:07;42.92;;;38.13;;
12407;SDS011;6268;48.188;17.134;2024-03-02T11:28:04;49.72;;;41.10;;
12407;SDS011;6268;48.188;17.134;2024-03-02T11:30:48;48.33;;;41.13;;
12407;SDS011;6268;48.188;17.134;2024-03-02T11:33:22;48.67;;;42.47;;
12407;SDS011;6268;48.188;17.134;2024-03-02T11:35:56;46.08;;;40.83;;
12407;SDS011;6268;48.188;17.134;2024-03-02T11:38:31;49.17;;;43.85;;
12407;SDS011;6268;48.188;17.134;2024-03-02T11:41:01;52.00;;;45.58;;
12407;SDS011;6268;48.188;17.134;2024-03-02T11:43:30;53.67;;;45.90;;
12407;SDS011;6268;48.188;17.134;2024-03-02T11:46:00;61.28;;;52.67;;
12407;SDS011;6268;48.188;17.134;2024-03-02T11:48:34;53.10;;;44.85;;
12407;SDS011;6268;48.188;17.134;2024-03-02T11:51:06;52.38;;;43.70;;
12407;SDS011;6268;48.188;17.134;2024-03-02T11:53:35;49.88;;;43.58;;
12407;SDS011;6268;48.188;17.134;2024-03-02T11:56:06;49.60;;;44.15;;
12407;SDS011;6268;48.188;17.134;2024-03-02T11:58:39;46.60;;;41.50;;
12407;SDS011;6268;48.188;17.134;2024-03-02T12:01:10;49.15;;;41.63;;
12407;SDS011;6268;48.188;17.134;2024-03-02T12:03:40;46.45;;;40.92;;
12407;SDS011;6268;48.188;17.134;2024-03-02T12:06:10;47.38;;;42.17;;
12407;SDS011;6268;48.188;17.134;2024-03-02T12:08:40;51.13;;;43.47;;
12407;SDS011;6268;48.188;17.134;2024-03-02T12:11:08;52.85;;;43.70;;
12407;SDS011;6268;48.188;17.134;2024-03-02T12:13:51;50.38;;;42.38;;
12407;SDS011;6268;48.188;17.134;2024-03-02T12:16:24;49.05;;;43.60;;
12407;SDS011;6268;48.188;17.134;2024-03-02T12:18:53;52.63;;;44.17;;
12407;SDS011;6268;48.188;17.134;2024-03-02T12:21:23;52.17;;;45.97;;
12407;SDS011;6268;48.188;17.134;2024-03-02T12:23:52;52.00;;;43.50;;
12407;SDS011;6268;48.188;17.134;2024-03-02T12:26:21;47.25;;;41.72;;
12407;SDS011;6268;48.188;17.134;2024-03-02T12:28:50;57.15;;;46.65;;
12407;SDS011;6268;48.188;17.134;2024-03-02T12:31:19;61.08;;;51.22;;
12407;SDS011;6268;48.188;17.134;2024-03-02T12:33:47;63.08;;;50.00;;
12407;SDS011;6268;48.188;17.134;2024-03-02T12:36:16;67.47;;;53.75;;
12407;SDS011;6268;48.188;17.134;2024-03-02T12:38:47;53.33;;;47.55;;
12407;SDS011;6268;48.188;17.134;2024-03-02T12:41:17;53.05;;;46.63;;
12407;SDS011;6268;48.188;17.134;2024-03-02T12:43:45;54.00;;;43.30;;
12407;SDS011;6268;48.188;17.134;2024-03-02T12:46:13;54.45;;;44.25;;
12407;SDS011;6268;48.188;17.134;2024-03-02T12:48:42;43.53;;;38.85;;
12407;SDS011;6268;48.188;17.134;2024-03-02T12:51:11;47.42;;;41.55;;
12407;SDS011;6268;48.188;17.134;2024-03-02T12:53:40;54.30;;;43.17;;
12407;SDS011;6268;48.188;17.134;2024-03-02T12:56:11;54.55;;;44.97;;
12407;SDS011;6268;48.188;17.134;2024-03-02T12:58:39;57.28;;;47.05;;
12407;SDS011;6268;48.188;17.134;2024-03-02T13:01:08;68.63;;;53.20;;
12407;SDS011;6268;48.188;17.134;2024-03-02T13:03:38;65.55;;;51.13;;
12407;SDS011;6268;48.188;17.134;2024-03-02T13:06:06;47.35;;;40.63;;
12407;SDS011;6268;48.188;17.134;2024-03-02T13:08:35;48.80;;;40.22;;
12407;SDS011;6268;48.188;17.134;2024-03-02T13:11:04;44.72;;;37.72;;
12407;SDS011;6268;48.188;17.134;2024-03-02T13:13:35;55.45;;;46.25;;
12407;SDS011;6268;48.188;17.134;2024-03-02T13:16:04;38.45;;;33.53;;
12407;SDS011;6268;48.188;17.134;2024-03-02T13:18:36;32.88;;;29.40;;
12407;SDS011;6268;48.188;17.134;2024-03-02T13:21:06;40.53;;;35.78;;
12407;SDS011;6268;48.188;17.134;2024-03-02T13:23:34;31.85;;;28.45;;
12407;SDS011;6268;48.188;17.134;2024-03-02T13:26:03;31.83;;;28.45;;
12407;SDS011;6268;48.188;17.134;2024-03-02T13:28:32;32.78;;;29.38;;
12407;SDS011;6268;48.188;17.134;2024-03-02T13:31:01;31.40;;;28.08;;
12407;SDS011;6268;48.188;17.134;2024-03-02T13:33:30;32.22;;;28.92;;
12407;SDS011;6268;48.188;17.134;2024-03-02T13:35:59;32.25;;;28.52;;
12407;SDS011;6268;48.188;17.134;2024-03-02T13:38:29;33.38;;;29.48;;
12407;SDS011;6268;48.188;17.134;2024-03-02T13:40:57;31.95;;;28.58;;
12407;SDS011;6268;48.188;17.134;2024-03-02T13:43:27;29.50;;;25.23;;
12407;SDS011;6268;48.188;17.134;2024-03-02T13:45:58;25.88;;;23.10;;
12407;SDS011;6268;48.188;17.134;2024-03-02T13:48:28;25.65;;;22.95;;
12407;SDS011;6268;48.188;17.134;2024-03-02T13:50:57;24.75;;;22.38;;
12407;SDS011;6268;48.188;17.134;2024-03-02T13:53:25;24.77;;;22.38;;
12407;SDS011;6268;48.188;17.134;2024-03-02T13:55:54;24.60;;;22.20;;
12407;SDS011;6268;48.188;17.134;2024-03-02T13:58:23;34.15;;;30.65;;
12407;SDS011;6268;48.188;17.134;2024-03-02T14:00:51;30.45;;;27.40;;
12407;SDS011;6268;48.188;17.134;2024-03-02T14:03:20;94.55;;;76.50;;
12407;SDS011;6268;48.188;17.134;2024-03-02T14:05:51;29.33;;;26.15;;
12407;SDS011;6268;48.188;17.134;2024-03-02T14:08:19;50.22;;;39.60;;
12407;SDS011;6268;48.188;17.134;2024-03-02T14:10:48;34.88;;;30.98;;
12407;SDS011;6268;48.188;17.134;2024-03-02T14:13:16;26.42;;;23.88;;
12407;SDS011;6268;48.188;17.134;2024-03-02T14:15:45;24.42;;;21.90;;
12407;SDS011;6268;48.188;17.134;2024-03-02T14:18:13;22.92;;;20.63;;
12407;SDS011;6268;48.188;17.134;2024-03-02T14:20:41;25.33;;;22.85;;
12407;SDS011;6268;48.188;17.134;2024-03-02T14:23:13;23.98;;;21.67;;
12407;SDS011;6268;48.188;17.134;2024-03-02T14:25:41;22.95;;;20.73;;
12407;SDS011;6268;48.188;17.134;2024-03-02T14:28:10;26.58;;;23.63;;
12407;SDS011;6268;48.188;17.134;2024-03-02T14:30:58;24.52;;;22.20;;
12407;SDS011;6268;48.188;17.134;2024-03-02T14:33:27;25.02;;;22.58;;
12407;SDS011;6268;48.188;17.134;2024-03-02T14:35:57;37.67;;;33.58;;